aviador You're here:

GMML Decoded Metar

LAAYOUNE/HASSAN in OCCIDENTAL SAHARA
Report Time2018-07-20 06:00:00
UTC Time2018-07-20 06:30:23
Flight Rules mvfr MVFR
Wind360° at 18 kt
W.Decomp.*RWY 02: 17.3 kt HW 5 kt LCW
RWY 04: 14.6 kt HW 10.6 kt LCW
Visibility8000 m
Phenomena:N/A
Clouds:Broken 017 Hf
Expected CloudBase > 1,200 ft AGL from Temp-Dew spread
Ceiling1,700 ft
Temp20°C (ISA +5)
Dew Point17°C (83% RH)
AAT15.9°C
QNH1014 hPa
Density Alt833 ft
Elevation20 ft
Report Wrong Elevation
Raw Report
GMML 200600Z 36018KT 8000 BKN017 20/17 Q1014 NOSIG=

Extra information for GMML:More info

Metar Taf Metar & Taf Last 4 Metars F.Rules Stats Wind Profile Meteogram Temp Stats Airport Information Weather charts Add Link Nearby VenuesMetar ALERT Operation Metar Decoded Social comments